Pagrindinis puslapis
METAR-TAF:

METAR-TAF

Oro uostai :

Batmanas, Turkija

platuma: 37-52N, ilguma: 041-10E, Aukštis: 540 m

Dabartinis oras

Ataskaita buvo paskelbta 39 minutes, ne 12:50 UTC
Vėjas 6 kt iš Vakarų, svyruoja nuo Pietų ir Šiaurės
Temperatūra 32°C
Drėgmė 13%
Slėgis 1008 hPa
Matomumas 10 km arba daugiau
nėra debesų žemiau 1500 m ir nėra kamuolinių lietaus debesų

METAR: LTCJ 121250Z 26006KT 190V350 CAVOK 32/00 Q1008 RMK RWY20 26006KT 210V300 5CI200

Laikas: 16:29 (13:29 UTC)

Prognozė

Ataskaita buvo paskelbta 2 valandos ir 49 minutes, ne 10:40 UTC
Prognozė galioja nuo 12 metu 12 UTC su 13 metu 12 UTC
Vėjas 7 kt iš Šiaurės Rytų
Matomumas 10 km arba daugiau
nėra debesų žemiau 1500 m ir nėra kamuolinių lietaus debesų
Tapsmas
nuo 13 metu 06 UTC su 13 metu 08 UTC
Mažai debesys ne aukštis 4000 ft
Išsisklaidę debesys ne aukštis 10000 ft

TAF: LTCJ 121040Z 1212/1312 05007KT CAVOK BECMG 1306/1308 FEW040 SCT100

Orai ataskaitas ir orų prognozės (METAR, TAF).

turimą stotys yra geltonos ir raudonos taškus žemėlapyje.

Perkelti pele per norėdami pamatyti stoties vardą.

Tada spustelėkite, norėdami matyti oro stebėjimo ir prognozės.

Norėdami pakeisti žemėlapį: spustelėkite ant žalios mygtukų su juodo kryžiaus žemyn,; žalią mygtuką su brūkšneliu, jei norite nutolinti; arba žalių rodyklių gretimoms žemėlapius.


METAR-TAF: